createdAt,value
2022-12-03T00:03:40.601Z,1028.4130005523127
2022-12-03T00:10:10.786Z,1028.4168859032177
2022-12-03T00:20:45.358Z,1028.3813445172646
2022-12-03T00:34:45.147Z,1028.3057994458136
2022-12-03T00:41:11.959Z,1028.3080126140776
2022-12-03T00:47:39.241Z,1028.369595007319
2022-12-03T00:54:05.846Z,1028.3613334978954
2022-12-03T01:00:33.081Z,1028.379456527741
2022-12-03T01:07:01.994Z,1028.3945398511853
2022-12-03T01:20:36.463Z,1028.3877635658373
2022-12-03T01:31:14.817Z,1028.3529589991863
2022-12-03T01:37:42.889Z,1028.3579635399558
2022-12-03T01:44:12.199Z,1028.3641837721568
2022-12-03T01:54:00.365Z,1028.3713861280894
2022-12-03T02:00:50.241Z,1028.4074282253132
2022-12-03T02:13:17.547Z,1028.3757021686808
2022-12-03T02:34:34.389Z,1028.3822294836589
2022-12-03T02:45:30.212Z,1028.369398178126
2022-12-03T02:51:56.486Z,1028.4021323167171
2022-12-03T03:03:33.718Z,1028.397273802315
2022-12-03T03:10:00.511Z,1028.3722119257968
2022-12-03T03:23:07.117Z,1028.279758614415
2022-12-03T03:33:03.310Z,1028.3163308331436
2022-12-03T03:39:59.195Z,1028.2799681765935
2022-12-03T03:50:00.630Z,1028.256894622954
2022-12-03T03:58:26.039Z,1028.233686746423
2022-12-03T04:04:55.379Z,1028.2263932862747
2022-12-03T04:11:24.928Z,1028.2419964483888
2022-12-03T04:19:00.247Z,1028.2618233185794
2022-12-03T04:25:28.506Z,1028.2500253540013
2022-12-03T04:31:56.145Z,1028.2679348782501
2022-12-03T04:44:27.714Z,1028.2586323785818
2022-12-03T04:51:59.602Z,1028.310880437547
2022-12-03T04:58:28.443Z,1028.3323846057183
2022-12-03T05:08:48.389Z,1028.3351757425771
2022-12-03T05:18:29.911Z,1028.342890895561
2022-12-03T05:29:28.643Z,1028.3362097865536
2022-12-03T05:41:58.206Z,1028.2677139858574
2022-12-03T05:48:26.199Z,1028.2909367794805
2022-12-03T05:54:56.829Z,1028.285725343168
2022-12-03T06:01:30.087Z,1028.2514643694167
2022-12-03T06:22:42.161Z,1028.1675014823636
2022-12-03T06:29:15.954Z,1028.1493262664903
2022-12-03T06:35:47.964Z,1028.141885269413
2022-12-03T06:44:21.431Z,1028.1438487284477
2022-12-03T06:57:12.778Z,1028.209918300717
2022-12-03T07:03:39.915Z,1028.1484941102299
2022-12-03T07:10:45.456Z,1028.036334212132
2022-12-03T07:19:20.587Z,1028.0615657618207
2022-12-03T07:26:04.895Z,1028.0851525459493
2022-12-03T07:32:32.542Z,1028.0420838938073
2022-12-03T07:39:00.437Z,1028.0696072747517
2022-12-03T07:45:49.104Z,1028.082913933299
2022-12-03T07:52:17.696Z,1028.034556216633
2022-12-03T07:58:46.808Z,1027.980922527881
2022-12-03T08:07:31.306Z,1027.7846977886584
2022-12-03T08:20:15.351Z,1027.8925874454521
2022-12-03T08:28:08.172Z,1027.8952146654108
2022-12-03T08:34:36.971Z,1027.910055083976
2022-12-03T08:48:33.088Z,1027.8248826734925
2022-12-03T08:58:51.899Z,1027.8262496032619
2022-12-03T09:11:23.815Z,1027.8211142222494
2022-12-03T09:22:36.378Z,1027.7764436973396
2022-12-03T09:29:11.861Z,1027.7525490049368
2022-12-03T09:41:41.511Z,1027.735567051753
2022-12-03T09:50:27.532Z,1027.6834028819196
2022-12-03T10:03:22.045Z,1027.6168762245773
2022-12-03T10:13:54.643Z,1027.42819573569
2022-12-03T10:20:21.856Z,1027.4608774924727
2022-12-03T10:28:55.049Z,1027.4350581795393
2022-12-03T10:40:58.140Z,1027.3515178216044
2022-12-03T10:59:44.433Z,1027.0851586114006
2022-12-03T11:06:13.756Z,1027.0627457023697
2022-12-03T11:12:42.803Z,1027.0344833919078
2022-12-03T11:22:27.444Z,1026.9142460413316
2022-12-03T11:28:54.638Z,1026.8404325369397
2022-12-03T11:35:23.087Z,1026.7456747127703
2022-12-03T11:41:53.969Z,1026.681514201504
2022-12-03T11:49:05.063Z,1026.6263711909105
2022-12-03T11:55:33.970Z,1026.5298775709393
2022-12-03T12:03:25.650Z,1026.455642828667
2022-12-03T12:09:55.335Z,1026.4110330071567
2022-12-03T12:16:25.860Z,1026.34868663204
2022-12-03T12:22:54.246Z,1026.2104048554136
2022-12-03T12:29:22.814Z,1026.1503839035806
2022-12-03T12:41:12.447Z,1026.0673198333488
2022-12-03T12:53:16.222Z,1025.8779763222485
2022-12-03T12:59:45.201Z,1025.8217750590911
2022-12-03T13:06:13.123Z,1025.7670321427652
2022-12-03T13:12:41.380Z,1025.7782172957702
2022-12-03T13:26:58.877Z,1025.7561379271037
2022-12-03T13:44:42.054Z,1025.6963865841092
2022-12-03T13:51:13.115Z,1025.660356856006
2022-12-03T14:00:09.919Z,1025.6970396478137
2022-12-03T14:09:08.089Z,1025.666591796851
2022-12-03T14:15:39.446Z,1025.6123562689802
2022-12-03T14:30:15.984Z,1025.5400276875123
2022-12-03T14:37:01.933Z,1025.4064276067907
2022-12-03T14:43:48.081Z,1025.3570996029848
2022-12-03T14:50:17.114Z,1025.3491998318264
2022-12-03T14:56:47.257Z,1025.3182931285098
2022-12-03T15:06:46.992Z,1025.2530734508136
2022-12-03T15:13:15.289Z,1025.2287513244648
2022-12-03T15:19:43.673Z,1025.2165749394098
2022-12-03T15:28:21.835Z,1025.2794515659978
2022-12-03T15:40:39.720Z,1025.3218857667027
2022-12-03T15:53:46.698Z,1025.3498977833842
2022-12-03T16:00:12.905Z,1025.32312691278
2022-12-03T16:09:49.167Z,1025.3659664742997
2022-12-03T16:17:56.490Z,1025.3987472470285
2022-12-03T16:31:40.618Z,1025.4038660779834
2022-12-03T16:39:18.310Z,1025.4274251824497
2022-12-03T16:45:45.576Z,1025.4144843109766
2022-12-03T16:53:01.038Z,1025.3340858943193
2022-12-03T16:59:28.557Z,1025.3609472929004
2022-12-03T17:07:15.775Z,1025.4116949059621
2022-12-03T17:13:43.305Z,1025.3917709636669
2022-12-03T17:20:11.106Z,1025.3412842971177
2022-12-03T17:26:38.742Z,1025.2908071428055
2022-12-03T17:34:05.148Z,1025.2295177809128
2022-12-03T17:43:49.456Z,1025.195712625541
2022-12-03T17:51:00.739Z,1025.1571532348585
2022-12-03T18:02:38.416Z,1025.1085218174248
2022-12-03T18:09:53.879Z,1025.1113960877665
2022-12-03T18:18:34.118Z,1025.050443131243
2022-12-03T18:31:03.766Z,1025.0435594106093
2022-12-03T18:41:36.628Z,1025.1260652707954
2022-12-03T18:58:10.313Z,1025.0751545396988
2022-12-03T19:04:41.895Z,1025.031837989081
2022-12-03T19:11:09.381Z,1024.9980844925715
2022-12-03T19:18:20.918Z,1024.9824786526963
2022-12-03T19:24:48.078Z,1025.0000034885402
2022-12-03T19:36:30.450Z,1025.0001823354219
2022-12-03T19:42:57.258Z,1025.0143784238182
2022-12-03T19:49:24.553Z,1025.0333776374755
2022-12-03T19:59:39.975Z,1025.0487149321025
2022-12-03T20:10:50.626Z,1025.0340414196448
2022-12-03T20:21:19.265Z,1025.0243925665397
2022-12-03T20:32:31.499Z,1024.9434157395756
2022-12-03T20:45:41.177Z,1024.8897985226158
2022-12-03T20:52:09.324Z,1024.8749866684798
2022-12-03T21:02:56.437Z,1024.8290359758987
2022-12-03T21:09:26.250Z,1024.8387902670179
2022-12-03T21:15:54.804Z,1024.8511287315923
2022-12-03T21:49:26.606Z,1024.940562633993
2022-12-03T22:00:32.849Z,1024.9639825504983
2022-12-03T22:07:00.305Z,1024.961518167018
2022-12-03T22:19:46.167Z,1024.8960619802208
2022-12-03T22:26:13.509Z,1024.8084909840295
2022-12-03T22:32:41.193Z,1024.7968193004579
2022-12-03T22:39:08.320Z,1024.7940488602367
2022-12-03T22:54:51.454Z,1024.7159582099957
2022-12-03T23:01:18.682Z,1024.6549632534727
2022-12-03T23:10:19.647Z,1024.6546114220232
2022-12-03T23:17:45.173Z,1024.651283563932
2022-12-03T23:29:09.027Z,1024.5949299366507
2022-12-03T23:35:37.333Z,1024.5462986951231
2022-12-03T23:52:23.039Z,1024.4666060995835
2022-12-03T23:58:52.802Z,1024.4570476762462
